createdAt,value
2018-09-28T00:00:59.744Z,17.17
2018-09-28T00:03:32.472Z,27.87
2018-09-28T00:06:05.819Z,40.90
2018-09-28T00:08:39.980Z,71.10
2018-09-28T00:11:18.430Z,94.23
2018-09-28T00:13:52.493Z,40.00
2018-09-28T00:16:25.080Z,30.77
2018-09-28T00:18:57.764Z,34.63
2018-09-28T00:21:30.229Z,35.90
2018-09-28T00:24:03.211Z,43.50
2018-09-28T00:26:35.654Z,34.53
2018-09-28T00:29:08.986Z,29.40
2018-09-28T00:31:43.406Z,29.97
2018-09-28T00:34:24.383Z,38.63
2018-09-28T00:36:58.313Z,20.90
2018-09-28T00:39:34.106Z,32.43
2018-09-28T00:42:09.382Z,23.20
2018-09-28T00:44:42.806Z,16.87
2018-09-28T00:47:19.029Z,14.63
2018-09-28T00:53:05.935Z,16.20
2018-09-28T00:55:38.673Z,17.83
2018-09-28T00:58:12.191Z,14.90
2018-09-28T01:00:51.490Z,14.60
2018-09-28T01:03:27.667Z,12.17
2018-09-28T01:06:01.628Z,21.00
2018-09-28T01:08:34.914Z,23.60
2018-09-28T01:11:16.787Z,20.40
2018-09-28T01:13:51.765Z,14.27
2018-09-28T01:16:25.101Z,14.97
2018-09-28T01:22:31.801Z,16.57
2018-09-28T01:25:07.549Z,12.07
2018-09-28T01:27:41.017Z,17.40
2018-09-28T01:30:15.896Z,18.60
2018-09-28T01:32:49.666Z,12.53
2018-09-28T01:35:22.120Z,15.27
2018-09-28T01:37:56.539Z,13.50
2018-09-28T01:40:29.730Z,11.53
2018-09-28T01:43:03.190Z,13.23
2018-09-28T01:45:36.325Z,10.13
2018-09-28T01:48:09.897Z,9.83
2018-09-28T01:50:42.349Z,10.33
2018-09-28T01:53:15.399Z,17.47
2018-09-28T01:55:47.732Z,14.67
2018-09-28T01:58:22.845Z,14.27
2018-09-28T02:00:55.678Z,19.17
2018-09-28T02:03:29.129Z,18.20
2018-09-28T02:06:02.451Z,17.80
2018-09-28T02:08:37.788Z,18.73
2018-09-28T02:11:11.145Z,21.03
2018-09-28T02:13:43.776Z,17.33
2018-09-28T02:16:17.695Z,18.80
2018-09-28T02:18:50.313Z,18.07
2018-09-28T02:21:23.906Z,17.63
2018-09-28T02:24:01.222Z,13.33
2018-09-28T02:26:34.185Z,18.23
2018-09-28T02:29:08.559Z,14.60
2018-09-28T02:31:41.080Z,14.23
2018-09-28T02:34:14.943Z,11.97
2018-09-28T02:36:47.188Z,16.63
2018-09-28T02:39:20.546Z,14.67
2018-09-28T02:41:53.493Z,19.23
2018-09-28T02:44:26.505Z,15.73
2018-09-28T02:47:00.277Z,14.87
2018-09-28T02:49:46.865Z,14.80
2018-09-28T02:52:19.164Z,20.33
2018-09-28T02:54:53.752Z,17.23
2018-09-28T02:57:26.415Z,14.07
2018-09-28T02:59:58.621Z,14.20
2018-09-28T03:02:34.386Z,16.63
2018-09-28T03:05:11.212Z,13.03
2018-09-28T03:11:16.435Z,17.40
2018-09-28T03:13:49.726Z,14.20
2018-09-28T03:16:23.222Z,12.07
2018-09-28T03:18:56.015Z,15.23
2018-09-28T03:21:30.483Z,15.43
2018-09-28T03:24:03.678Z,14.43
2018-09-28T03:26:38.264Z,11.17
2018-09-28T03:29:10.761Z,14.23
2018-09-28T03:31:43.801Z,10.80
2018-09-28T03:37:38.623Z,10.80
2018-09-28T03:40:11.089Z,11.23
2018-09-28T03:42:44.320Z,10.17
2018-09-28T03:48:43.507Z,9.30
2018-09-28T03:51:17.426Z,7.60
2018-09-28T03:53:51.005Z,19.07
2018-09-28T03:56:24.271Z,9.97
2018-09-28T03:58:58.171Z,17.80
2018-09-28T04:01:31.259Z,11.53
2018-09-28T04:04:03.658Z,9.87
2018-09-28T04:06:37.634Z,8.33
2018-09-28T04:09:14.323Z,7.43
2018-09-28T04:11:48.775Z,10.47
2018-09-28T04:14:55.183Z,7.23
2018-09-28T04:17:32.450Z,10.40
2018-09-28T04:20:07.736Z,11.70
2018-09-28T04:22:40.605Z,7.03
2018-09-28T04:28:44.294Z,21.93
2018-09-28T04:31:17.513Z,20.07
2018-09-28T04:33:50.912Z,14.93
2018-09-28T04:36:24.131Z,15.50
2018-09-28T04:38:57.876Z,13.97
2018-09-28T04:41:30.950Z,16.60
2018-09-28T04:44:04.191Z,22.23
2018-09-28T04:46:36.655Z,14.53
2018-09-28T04:49:09.952Z,13.27
2018-09-28T04:51:43.280Z,11.27
2018-09-28T04:54:16.403Z,9.13
2018-09-28T04:56:49.515Z,33.30
2018-09-28T04:59:22.800Z,68.53
2018-09-28T05:01:55.780Z,60.47
2018-09-28T05:04:28.822Z,43.93
2018-09-28T05:07:01.753Z,34.63
2018-09-28T05:09:35.061Z,14.20
2018-09-28T05:12:07.492Z,17.80
2018-09-28T05:14:40.800Z,13.07
2018-09-28T05:17:14.043Z,12.13
2018-09-28T05:19:47.124Z,12.80
2018-09-28T05:22:20.229Z,12.93
2018-09-28T05:24:53.250Z,10.50
2018-09-28T05:27:26.392Z,16.83
2018-09-28T05:29:59.848Z,12.77
2018-09-28T05:32:33.869Z,12.47
2018-09-28T05:35:07.168Z,14.80
2018-09-28T05:37:40.097Z,12.83
2018-09-28T05:40:13.364Z,9.67
2018-09-28T05:42:46.452Z,12.17
2018-09-28T05:45:19.519Z,10.20
2018-09-28T05:47:52.261Z,17.63
2018-09-28T05:50:25.829Z,10.37
2018-09-28T05:52:58.969Z,14.03
2018-09-28T05:55:32.207Z,21.67
2018-09-28T05:58:09.460Z,22.37
2018-09-28T06:00:46.824Z,16.53
2018-09-28T06:06:40.952Z,14.70
2018-09-28T06:09:14.193Z,13.57
2018-09-28T06:11:47.073Z,15.10
2018-09-28T06:14:19.737Z,11.87
2018-09-28T06:16:52.782Z,13.57
2018-09-28T06:19:25.739Z,15.83
2018-09-28T06:21:58.633Z,14.27
2018-09-28T06:24:31.539Z,16.30
2018-09-28T06:27:04.193Z,18.17
2018-09-28T06:29:36.983Z,22.30
2018-09-28T06:32:10.001Z,18.13
2018-09-28T06:34:42.716Z,20.10
2018-09-28T06:37:15.405Z,21.23
2018-09-28T06:39:48.100Z,18.17
2018-09-28T06:42:21.063Z,15.00
2018-09-28T06:44:54.202Z,17.37
2018-09-28T06:47:27.095Z,14.57
2018-09-28T06:49:59.763Z,17.60
2018-09-28T06:52:32.689Z,14.10
2018-09-28T06:55:05.828Z,15.57
2018-09-28T06:57:39.899Z,12.53
2018-09-28T07:00:12.561Z,13.93
2018-09-28T07:02:45.724Z,11.20
2018-09-28T07:05:18.434Z,11.10
2018-09-28T07:07:53.355Z,10.40
2018-09-28T07:10:26.008Z,14.97
2018-09-28T07:12:58.923Z,10.17
2018-09-28T07:15:31.905Z,9.83
2018-09-28T07:18:04.886Z,10.93
2018-09-28T07:20:37.912Z,11.27
2018-09-28T07:23:10.969Z,10.93
2018-09-28T07:25:44.201Z,14.13
2018-09-28T07:28:16.967Z,18.07
2018-09-28T07:30:49.965Z,12.13
2018-09-28T07:33:23.556Z,13.07
2018-09-28T07:35:56.245Z,15.40
2018-09-28T07:38:29.215Z,12.70
2018-09-28T07:41:02.087Z,15.13
2018-09-28T07:43:35.236Z,13.43
2018-09-28T07:46:08.019Z,16.20
2018-09-28T07:48:40.598Z,15.37
2018-09-28T07:51:13.088Z,15.80
2018-09-28T07:53:46.079Z,17.00
2018-09-28T07:56:19.148Z,18.37
2018-09-28T07:58:52.317Z,14.60
2018-09-28T08:01:25.099Z,19.23
2018-09-28T08:03:58.351Z,15.63
2018-09-28T08:06:30.776Z,17.77
2018-09-28T08:09:03.225Z,15.10
2018-09-28T08:14:56.690Z,15.60
2018-09-28T08:17:29.839Z,18.37
2018-09-28T08:20:02.982Z,18.37
2018-09-28T08:22:35.979Z,22.33
2018-09-28T08:25:09.259Z,16.87
2018-09-28T08:27:41.880Z,18.93
2018-09-28T08:30:14.771Z,18.90
2018-09-28T08:32:47.409Z,17.70
2018-09-28T08:35:20.172Z,17.60
2018-09-28T08:37:52.767Z,19.07
2018-09-28T08:40:25.312Z,19.23
2018-09-28T08:42:58.090Z,17.77
2018-09-28T08:45:31.122Z,17.90
2018-09-28T08:48:03.429Z,16.90
2018-09-28T08:50:36.060Z,22.10
2018-09-28T08:56:30.198Z,17.53
2018-09-28T08:59:03.152Z,18.73
2018-09-28T09:01:36.062Z,16.93
2018-09-28T09:04:09.136Z,20.07
2018-09-28T09:06:41.740Z,15.77
2018-09-28T09:09:15.466Z,17.33
2018-09-28T09:11:48.064Z,16.90
2018-09-28T09:14:20.583Z,15.63
2018-09-28T09:16:52.991Z,16.13
2018-09-28T09:19:26.132Z,19.10
2018-09-28T09:21:58.847Z,20.83
2018-09-28T09:24:31.277Z,13.63
2018-09-28T09:27:04.087Z,15.47
2018-09-28T09:29:36.819Z,14.30
2018-09-28T09:32:09.821Z,12.93
2018-09-28T09:34:42.313Z,13.33
2018-09-28T09:37:15.228Z,11.90
2018-09-28T09:39:49.116Z,17.17
2018-09-28T09:42:21.732Z,11.97
2018-09-28T09:44:54.190Z,10.37
2018-09-28T09:47:26.938Z,11.60
2018-09-28T09:49:59.539Z,10.87
2018-09-28T09:52:32.529Z,10.03
2018-09-28T09:55:05.077Z,14.30
2018-09-28T09:57:37.520Z,10.60
2018-09-28T10:00:11.095Z,10.27
2018-09-28T10:03:51.875Z,11.80
2018-09-28T10:06:24.447Z,10.87
2018-09-28T10:08:56.873Z,11.87
2018-09-28T10:11:29.725Z,11.53
2018-09-28T10:14:02.857Z,10.03
2018-09-28T10:16:35.277Z,12.23
2018-09-28T10:19:08.440Z,9.83
2018-09-28T10:21:40.886Z,12.00
2018-09-28T10:24:13.438Z,10.30
2018-09-28T10:26:46.143Z,12.43
2018-09-28T10:29:18.874Z,17.90
2018-09-28T10:31:51.636Z,13.27
2018-09-28T10:34:24.521Z,15.97
2018-09-28T10:36:57.283Z,13.90
2018-09-28T10:39:29.754Z,14.03
2018-09-28T10:42:02.310Z,14.53
2018-09-28T10:44:35.441Z,16.47
2018-09-28T10:47:08.435Z,13.43
2018-09-28T10:49:44.047Z,11.63
2018-09-28T10:52:18.769Z,10.07
2018-09-28T10:54:51.650Z,10.33
2018-09-28T10:57:24.663Z,11.57
2018-09-28T10:59:57.381Z,12.77
2018-09-28T11:05:51.639Z,12.23
2018-09-28T11:08:24.757Z,13.27
2018-09-28T11:10:57.954Z,15.30
2018-09-28T11:13:30.876Z,14.97
2018-09-28T11:16:04.044Z,18.03
2018-09-28T11:18:37.279Z,22.20
2018-09-28T11:21:10.390Z,17.90
2018-09-28T11:23:43.469Z,19.93
2018-09-28T11:26:16.311Z,19.23
2018-09-28T11:29:21.767Z,14.17
2018-09-28T11:31:55.201Z,16.50
2018-09-28T11:34:27.946Z,18.50
2018-09-28T11:37:01.210Z,15.03
2018-09-28T11:39:33.951Z,15.17
2018-09-28T11:42:07.885Z,14.37
2018-09-28T11:44:41.367Z,11.63
2018-09-28T11:47:14.871Z,13.83
2018-09-28T11:49:48.492Z,10.87
2018-09-28T11:52:21.970Z,14.73
2018-09-28T11:54:54.553Z,12.43
2018-09-28T11:57:27.758Z,16.60
2018-09-28T12:00:00.672Z,16.93
2018-09-28T12:02:33.678Z,21.60
2018-09-28T12:05:07.008Z,19.33
2018-09-28T12:07:39.757Z,19.93
2018-09-28T12:10:41.535Z,17.73
2018-09-28T12:13:14.158Z,16.90
2018-09-28T12:15:49.536Z,17.17
2018-09-28T12:18:23.883Z,30.50
2018-09-28T12:20:56.524Z,20.47
2018-09-28T12:23:29.653Z,23.13
2018-09-28T12:26:03.475Z,19.77
2018-09-28T12:28:36.443Z,18.53
2018-09-28T12:31:09.578Z,15.97
2018-09-28T12:33:42.345Z,17.23
2018-09-28T12:36:14.871Z,27.20
2018-09-28T12:38:48.007Z,19.57
2018-09-28T12:41:21.722Z,17.27
2018-09-28T12:43:54.837Z,15.03
2018-09-28T12:46:27.657Z,18.53
2018-09-28T12:49:00.443Z,14.90
2018-09-28T12:51:34.647Z,15.20
2018-09-28T12:54:07.504Z,12.07
2018-09-28T12:56:40.468Z,12.70
2018-09-28T12:59:14.148Z,15.30
2018-09-28T13:01:46.997Z,11.20
2018-09-28T13:04:20.535Z,12.33
2018-09-28T13:06:54.781Z,9.30
2018-09-28T13:09:27.933Z,16.67
2018-09-28T13:12:01.642Z,15.70
2018-09-28T13:14:35.024Z,10.53
2018-09-28T13:17:08.055Z,10.93
2018-09-28T13:19:40.781Z,13.67
2018-09-28T13:22:14.127Z,9.20
2018-09-28T13:24:47.339Z,11.17
2018-09-28T13:27:21.771Z,8.43
2018-09-28T13:29:54.250Z,9.23
2018-09-28T13:35:48.513Z,8.43
2018-09-28T13:38:21.466Z,10.37
2018-09-28T13:40:54.050Z,14.63
2018-09-28T13:43:27.016Z,15.37
2018-09-28T13:46:00.416Z,9.53
2018-09-28T13:48:35.169Z,10.83
2018-09-28T13:51:08.158Z,9.17
2018-09-28T13:53:41.288Z,13.97
2018-09-28T13:56:14.353Z,11.40
2018-09-28T13:58:47.238Z,17.70
2018-09-28T14:01:20.327Z,15.47
2018-09-28T14:03:54.848Z,18.80
2018-09-28T14:06:28.176Z,10.77
2018-09-28T14:09:01.094Z,8.10
2018-09-28T14:11:34.237Z,9.17
2018-09-28T14:14:38.211Z,11.03
2018-09-28T14:17:10.889Z,6.03
2018-09-28T14:19:43.593Z,7.50
2018-09-28T14:22:16.699Z,7.83
2018-09-28T14:24:49.935Z,9.83
2018-09-28T14:27:23.060Z,6.90
2018-09-28T14:29:55.822Z,8.47
2018-09-28T14:32:29.181Z,7.63
2018-09-28T14:35:02.276Z,11.87
2018-09-28T14:37:35.277Z,6.77
2018-09-28T14:40:08.525Z,12.80
2018-09-28T14:42:41.681Z,8.27
2018-09-28T14:45:38.678Z,6.90
2018-09-28T14:48:12.346Z,10.43
2018-09-28T14:50:46.773Z,9.63
2018-09-28T14:53:21.797Z,7.53
2018-09-28T14:55:55.426Z,5.63
2018-09-28T15:01:48.865Z,13.57
2018-09-28T15:07:52.772Z,5.00
2018-09-28T15:10:28.742Z,6.07
2018-09-28T15:13:03.875Z,6.43
2018-09-28T15:15:58.223Z,5.90
2018-09-28T15:18:31.240Z,8.27
2018-09-28T15:21:04.483Z,5.67
2018-09-28T15:23:38.652Z,5.77
2018-09-28T15:26:13.498Z,5.60
2018-09-28T15:28:46.778Z,7.93
2018-09-28T15:31:20.365Z,6.87
2018-09-28T15:33:55.272Z,8.53
2018-09-28T15:36:28.559Z,10.63
2018-09-28T15:39:02.673Z,4.63
2018-09-28T15:41:37.191Z,5.15
2018-09-28T15:44:10.559Z,4.20
2018-09-28T15:46:44.609Z,7.92
2018-09-28T15:49:17.866Z,7.77
2018-09-28T15:51:51.303Z,8.63
2018-09-28T15:54:24.769Z,7.08
2018-09-28T15:56:58.001Z,8.10
2018-09-28T15:59:30.922Z,5.23
2018-09-28T16:02:27.045Z,11.05
2018-09-28T16:05:01.095Z,6.30
2018-09-28T16:07:34.944Z,6.85
2018-09-28T16:10:18.323Z,4.50
2018-09-28T16:12:51.436Z,4.72
2018-09-28T16:15:24.880Z,4.23
2018-09-28T16:17:58.466Z,8.03
2018-09-28T16:20:31.660Z,7.35
2018-09-28T16:23:05.026Z,4.40
2018-09-28T16:25:48.366Z,4.50
2018-09-28T16:28:22.103Z,7.63
2018-09-28T16:30:55.536Z,4.90
2018-09-28T16:33:28.551Z,6.27
2018-09-28T16:36:01.676Z,6.03
2018-09-28T16:38:35.007Z,4.97
2018-09-28T16:41:08.283Z,7.40
2018-09-28T16:43:41.571Z,13.00
2018-09-28T16:46:16.739Z,4.87
2018-09-28T16:48:49.945Z,8.20
2018-09-28T16:51:23.357Z,12.23
2018-09-28T16:53:56.924Z,8.25
2018-09-28T16:56:30.394Z,7.40
2018-09-28T16:59:03.586Z,13.53
2018-09-28T17:01:37.219Z,3.80
2018-09-28T17:04:11.131Z,8.00
2018-09-28T17:06:44.375Z,9.08
2018-09-28T17:09:18.940Z,9.73
2018-09-28T17:11:52.509Z,6.60
2018-09-28T17:14:25.875Z,10.85
2018-09-28T17:16:59.474Z,8.63
2018-09-28T17:19:32.970Z,6.17
2018-09-28T17:22:06.268Z,5.33
2018-09-28T17:24:39.803Z,4.17
2018-09-28T17:27:12.967Z,10.75
2018-09-28T17:29:46.341Z,9.10
2018-09-28T17:32:19.653Z,4.45
2018-09-28T17:34:52.974Z,4.27
2018-09-28T17:37:26.401Z,4.17
2018-09-28T17:39:59.675Z,6.97
2018-09-28T17:42:33.035Z,4.85
2018-09-28T17:45:06.662Z,6.72
2018-09-28T17:47:40.572Z,4.67
2018-09-28T17:50:14.248Z,9.78
2018-09-28T17:52:47.587Z,4.37
2018-09-28T17:55:20.837Z,5.60
2018-09-28T17:57:53.555Z,5.40
2018-09-28T18:00:32.295Z,6.37
2018-09-28T18:03:06.144Z,3.98
2018-09-28T18:05:39.923Z,6.42
2018-09-28T18:08:13.324Z,6.17
2018-09-28T18:10:46.933Z,6.83
2018-09-28T18:13:20.132Z,8.10
2018-09-28T18:15:53.420Z,6.97
2018-09-28T18:18:26.897Z,6.05
2018-09-28T18:20:59.739Z,4.67
2018-09-28T18:23:33.547Z,4.87
2018-09-28T18:26:07.071Z,5.60
2018-09-28T18:28:40.321Z,3.58
2018-09-28T18:31:13.517Z,4.60
2018-09-28T18:33:46.557Z,4.05
2018-09-28T18:36:52.714Z,9.50
2018-09-28T18:39:49.389Z,6.83
2018-09-28T18:42:47.123Z,6.28
2018-09-28T18:45:45.723Z,4.85
2018-09-28T18:48:42.309Z,4.05
2018-09-28T18:51:18.668Z,9.63
2018-09-28T18:53:50.853Z,4.10
2018-09-28T18:56:23.573Z,9.13
2018-09-28T18:58:56.182Z,8.18
2018-09-28T19:01:28.666Z,5.35
2018-09-28T19:04:01.069Z,5.95
2018-09-28T19:06:33.773Z,7.25
2018-09-28T19:09:06.688Z,4.00
2018-09-28T19:11:39.568Z,3.55
2018-09-28T19:14:15.862Z,4.70
2018-09-28T19:20:10.033Z,7.75
2018-09-28T19:22:43.290Z,10.00
2018-09-28T19:25:16.538Z,8.05
2018-09-28T19:27:49.636Z,2.55
2018-09-28T19:30:24.289Z,8.63
2018-09-28T19:32:57.524Z,5.08
2018-09-28T19:35:31.123Z,5.47
2018-09-28T19:38:04.516Z,4.50
2018-09-28T19:40:39.045Z,9.25
2018-09-28T19:43:12.625Z,3.22
2018-09-28T19:45:46.137Z,3.98
2018-09-28T19:48:19.248Z,6.80
2018-09-28T19:50:52.956Z,4.60
2018-09-28T19:53:26.319Z,4.67
2018-09-28T19:55:59.684Z,4.25
2018-09-28T19:58:35.418Z,5.28
2018-09-28T20:01:08.992Z,6.33
2018-09-28T20:03:43.156Z,5.53
2018-09-28T20:06:16.687Z,7.72
2018-09-28T20:08:49.904Z,6.92
2018-09-28T20:11:24.970Z,6.12
2018-09-28T20:14:00.092Z,8.90
2018-09-28T20:16:33.616Z,7.97
2018-09-28T20:19:08.012Z,7.62
2018-09-28T20:21:41.200Z,4.15
2018-09-28T20:24:13.814Z,6.03
2018-09-28T20:26:47.397Z,8.68
2018-09-28T20:48:47.180Z,11.18
2018-09-28T20:51:19.976Z,3.25
2018-09-28T20:53:52.734Z,4.47
2018-09-28T20:56:48.421Z,6.30
2018-09-28T20:59:21.172Z,4.62
2018-09-28T21:01:53.891Z,7.35
2018-09-28T21:04:26.826Z,6.70
2018-09-28T21:06:59.323Z,7.42
2018-09-28T21:09:32.006Z,3.22
2018-09-28T21:12:04.837Z,10.00
2018-09-28T21:14:43.798Z,6.92
2018-09-28T21:20:35.040Z,3.25
2018-09-28T21:23:08.779Z,6.55
2018-09-28T21:25:41.873Z,10.85
2018-09-28T21:28:15.425Z,14.25
2018-09-28T21:30:49.117Z,6.30
2018-09-28T21:37:36.846Z,7.47
2018-09-28T21:40:10.257Z,12.15
2018-09-28T21:42:43.293Z,5.42
2018-09-28T21:48:48.710Z,4.90
2018-09-28T21:51:21.267Z,4.87
2018-09-28T21:53:54.293Z,3.52
2018-09-28T21:56:27.293Z,5.55
2018-09-28T21:59:00.175Z,5.90
2018-09-28T22:01:33.275Z,6.92
2018-09-28T22:04:06.916Z,7.70
2018-09-28T22:06:40.155Z,6.83
2018-09-28T22:12:34.176Z,9.90
2018-09-28T22:15:07.466Z,5.35
2018-09-28T22:17:40.712Z,7.40
2018-09-28T22:20:14.158Z,4.60
2018-09-28T22:26:17.910Z,5.45
2018-09-28T22:32:11.620Z,5.78
2018-09-28T22:34:44.611Z,6.95
2018-09-28T22:37:18.028Z,5.65
2018-09-28T22:42:29.845Z,10.68
2018-09-28T22:45:02.700Z,4.35
2018-09-28T22:47:35.967Z,5.83
2018-09-28T22:50:09.108Z,12.43
2018-09-28T22:52:42.372Z,9.47
2018-09-28T22:58:37.961Z,7.20
2018-09-28T23:01:11.027Z,7.07
2018-09-28T23:03:43.698Z,4.20
2018-09-28T23:06:16.637Z,5.33
2018-09-28T23:08:49.754Z,4.83
2018-09-28T23:11:23.283Z,7.53
2018-09-28T23:13:55.854Z,7.50
2018-09-28T23:16:31.320Z,6.47
2018-09-28T23:19:09.421Z,13.93
2018-09-28T23:21:49.125Z,7.03
2018-09-28T23:24:23.843Z,9.60
2018-09-28T23:27:01.798Z,11.17
2018-09-28T23:29:35.039Z,14.93
2018-09-28T23:32:07.827Z,7.27
2018-09-28T23:34:40.891Z,6.27
2018-09-28T23:37:14.958Z,7.37
2018-09-28T23:39:47.735Z,10.30
2018-09-28T23:42:20.414Z,5.77
2018-09-28T23:44:52.989Z,14.20
2018-09-28T23:47:25.857Z,13.33
2018-09-28T23:49:58.582Z,14.63
2018-09-28T23:52:31.461Z,7.53
2018-09-28T23:55:04.732Z,7.03
2018-09-28T23:57:37.363Z,7.17
